Time;durP1;ratioP1;P1;durP2;ratioP2;P2;SDS_P1;SDS_P2;PMS_P1;PMS_P2;Temp;Humidity;BMP_temperature;BMP_pressure;BME280_temperature;BME280_humidity;BME280_pressure;Samples;Min_cycle;Max_cycle;Signal;HPM_P1;HPM_P2
2022/09/25 00:01:50;;;;;;;13.20;6.53;;;;;;;;;;5112679;28;20290;-66
2022/09/25 00:04:19;;;;;;;7.37;6.00;;;;;;;;;;5127320;27;20712;-66
2022/09/25 00:06:48;;;;;;;8.67;6.10;;;;;;;;;;5113141;28;20298;-66
2022/09/25 00:09:19;;;;;;;21.03;5.53;;;;;;;;;;5112386;28;20282;-65
2022/09/25 00:11:46;;;;;;;16.43;5.63;;;;;;;;;;5112344;28;20206;-63
2022/09/25 00:14:13;;;;;;;5.07;4.67;;;;;;;;;;5112227;28;20290;-66
2022/09/25 00:16:41;;;;;;;8.03;5.10;;;;;;;;;;5112324;28;20272;-66
2022/09/25 00:21:56;;;;;;;9.37;5.13;;;;;;;;;;5135257;27;20206;-66
2022/09/25 00:24:23;;;;;;;15.60;4.90;;;;;;;;;;5112118;27;20287;-66
2022/09/25 00:26:50;;;;;;;24.43;5.10;;;;;;;;;;5113012;28;20587;-66
2022/09/25 00:29:19;;;;;;;18.80;5.70;;;;;;;;;;5112789;28;20322;-65
2022/09/25 00:31:46;;;;;;;30.43;5.47;;;;;;;;;;5112393;28;20200;-64
2022/09/25 00:34:14;;;;;;;8.97;4.63;;;;;;;;;;5112686;28;20199;-65
2022/09/25 00:36:41;;;;;;;16.20;4.50;;;;;;;;;;5112851;27;20306;-66
2022/09/25 00:39:08;;;;;;;7.10;3.93;;;;;;;;;;5132970;27;20203;-66
2022/09/25 00:41:36;;;;;;;5.13;4.30;;;;;;;;;;5133491;27;20284;-66
2022/09/25 00:44:03;;;;;;;6.70;3.67;;;;;;;;;;5133065;27;20202;-65
2022/09/25 00:46:33;;;;;;;3.70;3.40;;;;;;;;;;5133170;27;20309;-66
2022/09/25 00:49:11;;;;;;;4.20;3.90;;;;;;;;;;5133339;27;20251;-65
2022/09/25 00:51:51;;;;;;;5.83;4.33;;;;;;;;;;5133084;27;20205;-66
2022/09/25 00:54:24;;;;;;;6.27;4.27;;;;;;;;;;5147574;27;20599;-66
2022/09/25 00:56:52;;;;;;;9.30;4.23;;;;;;;;;;5115396;27;20303;-63
2022/09/25 00:59:22;;;;;;;6.33;4.10;;;;;;;;;;5115873;27;20291;-65
2022/09/25 01:01:49;;;;;;;28.07;4.10;;;;;;;;;;5115767;27;20705;-64
2022/09/25 01:04:17;;;;;;;35.73;4.57;;;;;;;;;;5116004;27;20207;-65
2022/09/25 01:06:44;;;;;;;33.57;4.60;;;;;;;;;;5114997;27;20204;-66
2022/09/25 01:09:12;;;;;;;39.13;4.90;;;;;;;;;;5115444;27;20242;-65
2022/09/25 01:11:39;;;;;;;37.97;4.80;;;;;;;;;;5105484;27;20223;-66
2022/09/25 01:14:08;;;;;;;14.33;4.90;;;;;;;;;;5115917;27;20286;-66
2022/09/25 01:16:35;;;;;;;6.23;4.40;;;;;;;;;;5115898;27;20208;-66
2022/09/25 01:19:08;;;;;;;9.60;4.83;;;;;;;;;;5115792;27;20187;-65
2022/09/25 01:21:38;;;;;;;23.77;4.83;;;;;;;;;;5115539;27;20231;-64
2022/09/25 01:24:09;;;;;;;6.73;4.70;;;;;;;;;;5115265;27;20196;-65
2022/09/25 01:26:55;;;;;;;11.07;4.50;;;;;;;;;;5115413;27;20290;-65
2022/09/25 01:29:27;;;;;;;5.30;3.80;;;;;;;;;;5116461;27;20625;-63
2022/09/25 01:32:07;;;;;;;4.33;3.93;;;;;;;;;;5115516;27;20274;-65
2022/09/25 01:34:41;;;;;;;18.80;4.40;;;;;;;;;;5133754;27;20637;-66
2022/09/25 01:37:14;;;;;;;10.37;4.53;;;;;;;;;;5115376;27;20306;-66
2022/09/25 01:39:45;;;;;;;7.87;3.90;;;;;;;;;;5115202;27;20298;-66
2022/09/25 01:42:21;;;;;;;7.57;4.30;;;;;;;;;;5115414;27;20286;-67
2022/09/25 01:45:01;;;;;;;4.77;4.27;;;;;;;;;;5115396;27;20229;-66
2022/09/25 01:47:29;;;;;;;6.20;4.90;;;;;;;;;;5115112;27;20211;-65
2022/09/25 01:49:59;;;;;;;9.03;3.93;;;;;;;;;;5114864;27;20715;-64
2022/09/25 01:52:31;;;;;;;9.53;3.97;;;;;;;;;;5115531;27;20636;-66
2022/09/25 01:55:05;;;;;;;3.90;3.60;;;;;;;;;;5114360;27;20259;-66
2022/09/25 01:57:37;;;;;;;4.30;3.77;;;;;;;;;;5114313;27;20257;-66
2022/09/25 02:00:10;;;;;;;3.90;3.60;;;;;;;;;;5114693;27;20208;-65
2022/09/25 02:02:49;;;;;;;4.20;3.80;;;;;;;;;;5125380;27;20234;-66
2022/09/25 02:05:37;;;;;;;4.10;3.80;;;;;;;;;;5135313;27;20222;-65
2022/09/25 02:08:07;;;;;;;6.10;5.50;;;;;;;;;;5138507;27;20255;-65
2022/09/25 02:10:36;;;;;;;5.40;4.90;;;;;;;;;;5135337;27;20275;-65
2022/09/25 02:13:09;;;;;;;4.60;4.20;;;;;;;;;;5135450;27;20297;-66
2022/09/25 02:15:38;;;;;;;5.63;4.17;;;;;;;;;;5134888;27;20313;-66
2022/09/25 02:21:06;;;;;;;7.03;6.43;;;;;;;;;;5133909;27;20637;-65
2022/09/25 02:23:34;;;;;;;5.00;4.60;;;;;;;;;;5114424;27;20207;-66
2022/09/25 02:26:07;;;;;;;5.50;5.00;;;;;;;;;;5113901;27;20311;-65
2022/09/25 02:28:36;;;;;;;6.20;4.70;;;;;;;;;;5107768;27;20243;-66
2022/09/25 02:31:06;;;;;;;5.40;4.90;;;;;;;;;;5113836;27;20199;-65
2022/09/25 02:33:34;;;;;;;4.70;4.30;;;;;;;;;;5132267;27;20206;-65
2022/09/25 02:36:03;;;;;;;4.50;4.10;;;;;;;;;;5133621;27;20279;-66
2022/09/25 02:38:32;;;;;;;4.23;3.87;;;;;;;;;;5113884;27;20314;-66
2022/09/25 02:41:22;;;;;;;4.20;3.90;;;;;;;;;;5114173;27;20248;-66
2022/09/25 02:43:57;;;;;;;4.60;4.20;;;;;;;;;;5113270;27;20693;-65
2022/09/25 02:46:39;;;;;;;4.10;3.80;;;;;;;;;;5113495;27;20242;-65
2022/09/25 02:49:26;;;;;;;4.13;3.83;;;;;;;;;;5113956;27;20461;-65
2022/09/25 02:52:02;;;;;;;3.57;3.27;;;;;;;;;;5100283;27;20199;-66
2022/09/25 02:54:37;;;;;;;3.20;3.00;;;;;;;;;;5116797;27;20787;-66
2022/09/25 02:57:12;;;;;;;3.43;3.23;;;;;;;;;;5112956;27;20303;-66
2022/09/25 02:59:45;;;;;;;3.80;3.50;;;;;;;;;;5106350;27;20708;-65
2022/09/25 03:02:14;;;;;;;4.07;3.73;;;;;;;;;;5113561;27;20647;-65
2022/09/25 03:04:42;;;;;;;7.53;3.90;;;;;;;;;;5113024;27;20222;-66
2022/09/25 03:07:09;;;;;;;4.93;3.63;;;;;;;;;;5131355;27;20425;-65
2022/09/25 03:09:38;;;;;;;4.63;3.90;;;;;;;;;;5113843;27;20200;-65
2022/09/25 03:12:05;;;;;;;17.33;3.73;;;;;;;;;;5093129;28;20283;-65
2022/09/25 03:14:33;;;;;;;56.90;4.57;;;;;;;;;;5092818;28;20315;-64
2022/09/25 03:17:03;;;;;;;11.53;3.53;;;;;;;;;;5106452;27;20237;-65
2022/09/25 03:19:30;;;;;;;5.43;3.70;;;;;;;;;;5113434;27;20187;-66
2022/09/25 03:21:58;;;;;;;4.93;4.30;;;;;;;;;;5113808;27;20204;-66
2022/09/25 03:24:26;;;;;;;7.90;4.57;;;;;;;;;;5113455;27;20315;-64
2022/09/25 03:26:53;;;;;;;6.43;5.70;;;;;;;;;;5115372;27;20207;-66
2022/09/25 03:29:21;;;;;;;6.30;5.70;;;;;;;;;;5115353;27;20298;-65
2022/09/25 03:31:51;;;;;;;4.90;4.50;;;;;;;;;;5112935;27;20616;-65
2022/09/25 03:34:19;;;;;;;4.77;4.37;;;;;;;;;;5113068;27;20257;-65
2022/09/25 03:36:46;;;;;;;5.63;4.87;;;;;;;;;;5130974;27;20208;-66
2022/09/25 03:39:17;;;;;;;4.73;4.33;;;;;;;;;;5113175;27;20228;-66
2022/09/25 03:41:44;;;;;;;5.07;4.13;;;;;;;;;;5113407;28;20196;-66
2022/09/25 03:44:11;;;;;;;4.20;3.90;;;;;;;;;;5113604;28;20657;-66
2022/09/25 03:46:39;;;;;;;4.93;4.53;;;;;;;;;;5112419;28;20219;-66
2022/09/25 03:49:07;;;;;;;5.20;4.70;;;;;;;;;;5109115;28;20591;-65
2022/09/25 03:51:34;;;;;;;5.37;4.43;;;;;;;;;;5105889;28;20725;-66
2022/09/25 03:54:02;;;;;;;5.40;4.90;;;;;;;;;;5112569;28;20286;-66
2022/09/25 03:56:31;;;;;;;7.90;5.90;;;;;;;;;;5111970;28;20210;-65
2022/09/25 03:58:59;;;;;;;5.33;4.87;;;;;;;;;;5112215;28;20262;-65
2022/09/25 04:01:27;;;;;;;5.60;5.10;;;;;;;;;;5113155;28;20639;-66
2022/09/25 04:03:54;;;;;;;4.33;3.93;;;;;;;;;;5112094;28;20199;-66
2022/09/25 04:06:23;;;;;;;4.27;3.97;;;;;;;;;;5111705;28;20225;-65
2022/09/25 04:08:51;;;;;;;5.30;4.10;;;;;;;;;;5111927;28;20207;-65
2022/09/25 04:11:20;;;;;;;16.00;4.40;;;;;;;;;;5112358;28;20306;-66
2022/09/25 04:13:47;;;;;;;5.40;4.73;;;;;;;;;;5112672;28;20451;-65
2022/09/25 04:16:15;;;;;;;22.77;5.10;;;;;;;;;;5112717;28;20617;-65
2022/09/25 04:18:43;;;;;;;6.23;5.10;;;;;;;;;;5127301;27;20227;-65
2022/09/25 04:21:12;;;;;;;14.73;4.97;;;;;;;;;;5112626;28;20294;-65
2022/09/25 04:23:40;;;;;;;5.97;5.37;;;;;;;;;;5130558;28;20239;-65
2022/09/25 04:26:08;;;;;;;8.07;6.50;;;;;;;;;;5112149;28;20275;-65
2022/09/25 04:28:35;;;;;;;7.70;6.43;;;;;;;;;;5112184;27;20211;-65
2022/09/25 04:31:03;;;;;;;6.33;5.63;;;;;;;;;;5115381;27;20291;-66
2022/09/25 04:33:46;;;;;;;10.03;6.23;;;;;;;;;;5116934;27;20577;-65
2022/09/25 04:36:20;;;;;;;20.77;6.83;;;;;;;;;;5116399;27;20227;-65
2022/09/25 04:38:47;;;;;;;30.10;7.23;;;;;;;;;;5116152;27;20310;-65
2022/09/25 04:41:18;;;;;;;17.20;6.77;;;;;;;;;;5116352;27;20245;-64
2022/09/25 04:43:46;;;;;;;19.23;8.20;;;;;;;;;;5109506;27;20712;-64
2022/09/25 04:46:13;;;;;;;27.83;8.17;;;;;;;;;;5115698;27;20266;-65
2022/09/25 04:48:47;;;;;;;42.03;7.70;;;;;;;;;;5116903;27;20256;-64
2022/09/25 04:51:14;;;;;;;9.63;7.40;;;;;;;;;;5116035;27;20199;-64
2022/09/25 04:53:42;;;;;;;12.20;8.17;;;;;;;;;;5116420;27;20298;-64
2022/09/25 04:56:10;;;;;;;10.53;8.23;;;;;;;;;;5108381;27;20262;-64
2022/09/25 04:58:49;;;;;;;11.57;8.53;;;;;;;;;;5109147;27;20215;-65
2022/09/25 05:01:18;;;;;;;10.83;8.20;;;;;;;;;;5133826;27;20271;-64
2022/09/25 05:03:54;;;;;;;12.33;9.77;;;;;;;;;;5115550;27;20203;-64
2022/09/25 05:06:22;;;;;;;8.00;7.20;;;;;;;;;;5115506;27;20248;-64
2022/09/25 05:08:50;;;;;;;9.87;5.63;;;;;;;;;;5115860;27;20721;-64
2022/09/25 05:11:18;;;;;;;8.67;4.20;;;;;;;;;;5115549;27;20203;-65
2022/09/25 05:13:48;;;;;;;9.83;4.23;;;;;;;;;;5115911;27;20207;-64
2022/09/25 05:16:19;;;;;;;15.87;3.97;;;;;;;;;;5115174;27;20223;-64
2022/09/25 05:18:47;;;;;;;13.97;4.50;;;;;;;;;;5133419;27;20222;-64
2022/09/25 05:21:14;;;;;;;14.10;4.40;;;;;;;;;;5115058;27;20700;-65
2022/09/25 05:23:41;;;;;;;11.83;4.57;;;;;;;;;;5114792;27;20199;-64
2022/09/25 05:26:09;;;;;;;49.63;5.33;;;;;;;;;;5120468;27;20688;-65
2022/09/25 05:28:37;;;;;;;12.73;5.03;;;;;;;;;;5122781;27;20207;-64
2022/09/25 05:31:05;;;;;;;11.43;5.00;;;;;;;;;;5115005;27;20259;-65
2022/09/25 05:33:34;;;;;;;12.33;5.67;;;;;;;;;;5115509;27;20207;-65
2022/09/25 05:36:02;;;;;;;14.57;5.10;;;;;;;;;;5115210;27;20709;-65
2022/09/25 05:38:31;;;;;;;5.93;5.33;;;;;;;;;;5115016;27;20314;-64
2022/09/25 05:41:05;;;;;;;56.33;6.20;;;;;;;;;;5115320;27;20200;-65
2022/09/25 05:43:33;;;;;;;5.70;5.13;;;;;;;;;;5125107;27;20671;-65
2022/09/25 05:46:01;;;;;;;7.03;6.33;;;;;;;;;;5135500;27;20221;-63
2022/09/25 05:48:28;;;;;;;10.23;8.17;;;;;;;;;;5113216;27;20643;-66
2022/09/25 05:50:56;;;;;;;11.07;9.73;;;;;;;;;;5115718;27;20231;-66
2022/09/25 05:53:24;;;;;;;11.07;9.97;;;;;;;;;;5116021;27;20302;-64
2022/09/25 05:55:57;;;;;;;9.23;8.33;;;;;;;;;;5135212;27;20315;-67
2022/09/25 05:58:28;;;;;;;9.87;8.97;;;;;;;;;;5119401;27;20232;-64
2022/09/25 06:00:55;;;;;;;9.57;8.67;;;;;;;;;;5117340;27;20282;-66
2022/09/25 06:03:23;;;;;;;9.70;8.70;;;;;;;;;;5112779;27;20265;-66
2022/09/25 06:05:50;;;;;;;8.97;8.03;;;;;;;;;;5112575;27;20231;-66
2022/09/25 06:08:18;;;;;;;8.47;6.10;;;;;;;;;;5114787;27;20652;-66
2022/09/25 06:10:51;;;;;;;5.93;5.40;;;;;;;;;;5114757;27;20687;-65
2022/09/25 06:13:19;;;;;;;6.17;5.57;;;;;;;;;;5114857;27;20246;-65
2022/09/25 06:15:49;;;;;;;6.07;5.43;;;;;;;;;;5114305;27;20310;-66
2022/09/25 06:18:17;;;;;;;8.73;6.40;;;;;;;;;;5114865;27;20215;-66
2022/09/25 06:20:49;;;;;;;6.90;6.20;;;;;;;;;;5115293;27;20202;-66
2022/09/25 06:23:17;;;;;;;9.67;7.63;;;;;;;;;;5111592;27;20241;-66
2022/09/25 06:25:44;;;;;;;6.97;6.00;;;;;;;;;;5113939;27;20302;-66
2022/09/25 06:28:12;;;;;;;6.97;6.27;;;;;;;;;;5114255;27;20203;-65
2022/09/25 06:30:39;;;;;;;6.87;6.20;;;;;;;;;;5106557;27;20885;-66
2022/09/25 06:33:09;;;;;;;8.10;7.30;;;;;;;;;;5114284;27;20286;-66
2022/09/25 06:35:40;;;;;;;8.27;6.93;;;;;;;;;;5114417;27;20950;-66
2022/09/25 06:38:07;;;;;;;8.07;7.33;;;;;;;;;;5109970;28;20200;-64
2022/09/25 06:40:36;;;;;;;8.67;7.77;;;;;;;;;;5114141;27;20279;-65
2022/09/25 06:43:04;;;;;;;8.30;7.50;;;;;;;;;;5114446;27;20204;-65
2022/09/25 06:45:32;;;;;;;27.43;13.83;;;;;;;;;;5114158;27;20302;-64
2022/09/25 06:48:01;;;;;;;55.43;24.90;;;;;;;;;;5113525;27;20203;-66
2022/09/25 06:50:32;;;;;;;43.87;21.27;;;;;;;;;;5114086;27;20299;-64
2022/09/25 06:52:59;;;;;;;35.47;20.83;;;;;;;;;;5113968;27;20253;-66
2022/09/25 06:55:27;;;;;;;23.73;15.03;;;;;;;;;;5113828;27;20409;-66
2022/09/25 06:57:54;;;;;;;22.60;13.20;;;;;;;;;;5113266;27;20286;-65
2022/09/25 07:00:21;;;;;;;13.87;9.00;;;;;;;;;;5113358;27;20208;-65
2022/09/25 07:05:35;;;;;;;15.63;10.53;;;;;;;;;;5131113;27;20310;-65
2022/09/25 07:08:02;;;;;;;14.60;10.83;;;;;;;;;;5117231;27;20289;-66
2022/09/25 07:10:30;;;;;;;16.17;10.43;;;;;;;;;;5134561;27;20624;-66
2022/09/25 07:12:58;;;;;;;15.77;11.43;;;;;;;;;;5134527;27;20290;-65
2022/09/25 07:15:25;;;;;;;15.27;11.90;;;;;;;;;;5131224;27;20253;-64
2022/09/25 07:17:52;;;;;;;26.50;19.30;;;;;;;;;;5113123;27;20691;-65
2022/09/25 07:20:21;;;;;;;26.40;19.27;;;;;;;;;;5113081;27;20866;-66
2022/09/25 07:22:48;;;;;;;13.30;10.87;;;;;;;;;;5107743;27;20553;-65
2022/09/25 07:25:16;;;;;;;11.10;10.00;;;;;;;;;;5113456;27;20219;-65
2022/09/25 07:27:44;;;;;;;10.40;9.40;;;;;;;;;;5112428;28;20195;-66
2022/09/25 07:30:11;;;;;;;9.33;8.30;;;;;;;;;;5113477;27;20267;-65
2022/09/25 07:32:39;;;;;;;10.87;8.67;;;;;;;;;;5113325;27;20207;-65
2022/09/25 07:35:06;;;;;;;8.60;7.63;;;;;;;;;;5130798;27;20731;-66
2022/09/25 07:37:34;;;;;;;8.83;7.93;;;;;;;;;;5113057;27;20640;-65
2022/09/25 07:40:01;;;;;;;8.43;7.63;;;;;;;;;;5113244;27;20595;-65
2022/09/25 07:42:29;;;;;;;8.50;7.67;;;;;;;;;;5113657;28;20203;-65
2022/09/25 07:44:56;;;;;;;8.20;7.40;;;;;;;;;;5113426;28;20225;-65
2022/09/25 07:47:24;;;;;;;8.40;7.50;;;;;;;;;;5112656;28;20290;-65
2022/09/25 07:49:51;;;;;;;9.57;7.90;;;;;;;;;;5112827;28;20242;-65
2022/09/25 07:52:18;;;;;;;8.40;7.60;;;;;;;;;;5111041;28;20202;-65
2022/09/25 07:54:45;;;;;;;7.77;7.07;;;;;;;;;;5113094;28;20783;-66
2022/09/25 07:57:13;;;;;;;9.33;7.47;;;;;;;;;;5113116;28;20290;-66
2022/09/25 07:59:40;;;;;;;8.80;7.90;;;;;;;;;;5117459;28;20220;-66
2022/09/25 08:02:08;;;;;;;9.97;7.87;;;;;;;;;;5112426;28;20275;-66
2022/09/25 08:04:36;;;;;;;8.87;7.57;;;;;;;;;;5114728;27;20306;-66
2022/09/25 08:07:03;;;;;;;8.17;7.37;;;;;;;;;;5116952;27;20203;-66
2022/09/25 08:09:31;;;;;;;8.13;7.33;;;;;;;;;;5117506;27;20661;-65
2022/09/25 08:11:58;;;;;;;8.10;7.30;;;;;;;;;;5135922;27;20282;-66
2022/09/25 08:14:25;;;;;;;7.90;7.10;;;;;;;;;;5118126;27;20266;-66
2022/09/25 08:16:54;;;;;;;7.70;6.87;;;;;;;;;;5128481;27;20225;-64
2022/09/25 08:19:22;;;;;;;7.07;6.47;;;;;;;;;;5138803;27;20238;-64
2022/09/25 08:21:50;;;;;;;8.03;7.33;;;;;;;;;;5127310;27;20291;-66
2022/09/25 08:24:17;;;;;;;6.60;6.00;;;;;;;;;;5118185;27;20638;-66
2022/09/25 08:26:46;;;;;;;8.27;6.90;;;;;;;;;;5129711;27;20263;-65
2022/09/25 08:29:13;;;;;;;7.17;6.47;;;;;;;;;;5123034;27;20231;-66
2022/09/25 08:31:40;;;;;;;5.57;5.03;;;;;;;;;;5096960;28;20530;-65
2022/09/25 08:34:09;;;;;;;7.20;6.50;;;;;;;;;;5122087;27;20297;-66
2022/09/25 08:36:57;;;;;;;7.20;6.47;;;;;;;;;;5140679;27;20664;-65
2022/09/25 08:39:24;;;;;;;7.27;5.83;;;;;;;;;;5137491;27;20322;-65
2022/09/25 08:41:53;;;;;;;7.23;6.53;;;;;;;;;;5137326;27;20290;-65
2022/09/25 08:44:21;;;;;;;7.57;6.10;;;;;;;;;;5137316;27;20223;-65
2022/09/25 08:49:51;;;;;;;6.93;6.23;;;;;;;;;;5144684;27;20210;-66
2022/09/25 08:52:20;;;;;;;5.63;5.13;;;;;;;;;;5138551;27;20677;-66
2022/09/25 08:54:47;;;;;;;6.87;5.40;;;;;;;;;;5122391;27;20255;-66
2022/09/25 08:57:15;;;;;;;7.07;5.73;;;;;;;;;;5115861;27;20210;-66
2022/09/25 08:59:46;;;;;;;6.93;5.77;;;;;;;;;;5115798;27;20224;-64
2022/09/25 09:02:15;;;;;;;5.70;5.07;;;;;;;;;;5116252;27;20283;-66
2022/09/25 09:04:46;;;;;;;5.77;5.10;;;;;;;;;;5115182;27;20223;-66
2022/09/25 09:07:15;;;;;;;5.37;4.83;;;;;;;;;;5139172;27;20230;-66
2022/09/25 09:10:16;;;;;;;5.30;4.80;;;;;;;;;;5138656;27;20209;-66
2022/09/25 09:12:50;;;;;;;6.87;5.10;;;;;;;;;;5136441;27;20684;-66
2022/09/25 09:15:24;;;;;;;7.53;6.80;;;;;;;;;;5136182;27;20318;-66
2022/09/25 09:17:52;;;;;;;9.68;8.40;;;;;;;;;;5136629;27;20187;-66
2022/09/25 09:20:22;;;;;;;7.27;6.57;;;;;;;;;;5116360;27;20286;-66
2022/09/25 09:22:51;;;;;;;4.90;4.50;;;;;;;;;;5115638;27;20203;-65
2022/09/25 09:25:35;;;;;;;4.87;4.47;;;;;;;;;;5116034;27;20311;-65
2022/09/25 09:28:12;;;;;;;5.20;4.70;;;;;;;;;;5115982;27;20748;-66
2022/09/25 09:30:56;;;;;;;6.37;4.37;;;;;;;;;;5107939;27;20290;-65
2022/09/25 09:33:29;;;;;;;4.43;4.00;;;;;;;;;;5115720;27;20756;-64
2022/09/25 09:36:12;;;;;;;4.30;3.90;;;;;;;;;;5114622;27;20223;-66
2022/09/25 09:38:40;;;;;;;4.80;4.40;;;;;;;;;;5107544;27;20231;-66
2022/09/25 09:41:21;;;;;;;6.23;4.60;;;;;;;;;;5115999;27;20257;-65
2022/09/25 09:43:51;;;;;;;6.20;4.00;;;;;;;;;;5115874;27;20298;-65
2022/09/25 09:46:24;;;;;;;4.60;3.90;;;;;;;;;;5115762;27;20276;-64
2022/09/25 09:48:54;;;;;;;5.47;4.97;;;;;;;;;;5114963;27;20688;-66
2022/09/25 09:51:23;;;;;;;5.13;4.63;;;;;;;;;;5115131;27;20266;-66
2022/09/25 09:53:50;;;;;;;4.70;4.30;;;;;;;;;;5115309;27;20210;-65
2022/09/25 09:56:21;;;;;;;5.80;5.30;;;;;;;;;;5114934;27;20382;-66
2022/09/25 09:58:58;;;;;;;8.68;7.97;;;;;;;;;;5119080;27;20200;-65
2022/09/25 10:01:36;;;;;;;7.07;6.50;;;;;;;;;;5114736;27;20286;-65
2022/09/25 10:04:17;;;;;;;4.22;3.92;;;;;;;;;;5115673;27;20234;-65
2022/09/25 10:06:46;;;;;;;5.10;4.00;;;;;;;;;;5114406;27;20275;-66
2022/09/25 10:09:15;;;;;;;7.87;7.17;;;;;;;;;;5114878;27;20294;-65
2022/09/25 10:11:44;;;;;;;5.90;5.38;;;;;;;;;;5116898;27;20209;-66
2022/09/25 10:14:15;;;;;;;5.93;5.47;;;;;;;;;;5114741;27;20798;-66
2022/09/25 10:16:42;;;;;;;4.75;4.35;;;;;;;;;;5114948;27;20460;-65
2022/09/25 10:19:18;;;;;;;3.35;3.05;;;;;;;;;;5114024;27;20763;-65
2022/09/25 10:22:06;;;;;;;5.38;2.50;;;;;;;;;;5108133;27;20590;-65
2022/09/25 10:24:53;;;;;;;3.03;2.78;;;;;;;;;;5114519;27;20266;-64
2022/09/25 10:27:24;;;;;;;3.08;2.88;;;;;;;;;;5128744;27;20206;-66
2022/09/25 10:30:06;;;;;;;3.50;3.20;;;;;;;;;;5132925;27;20206;-65
2022/09/25 10:32:42;;;;;;;3.20;3.00;;;;;;;;;;5118658;27;20262;-65
2022/09/25 10:35:13;;;;;;;3.80;3.50;;;;;;;;;;5113915;27;20310;-65
2022/09/25 10:37:41;;;;;;;2.55;2.35;;;;;;;;;;5118322;27;20221;-65
2022/09/25 10:40:22;;;;;;;5.00;3.20;;;;;;;;;;5117245;27;20307;-65
2022/09/25 10:43:01;;;;;;;4.10;3.40;;;;;;;;;;5110261;27;20207;-65
2022/09/25 10:45:30;;;;;;;3.13;2.92;;;;;;;;;;5113215;27;20246;-65
2022/09/25 10:51:16;;;;;;;3.72;3.05;;;;;;;;;;5153716;27;20324;-66
2022/09/25 10:53:44;;;;;;;5.10;3.85;;;;;;;;;;5137964;27;20195;-66
2022/09/25 10:56:15;;;;;;;3.28;3.08;;;;;;;;;;5112240;28;20278;-66
2022/09/25 10:59:00;;;;;;;3.50;3.20;;;;;;;;;;5118883;28;20200;-65
2022/09/25 11:01:38;;;;;;;3.58;3.03;;;;;;;;;;5110887;28;20256;-66
2022/09/25 11:04:13;;;;;;;3.80;3.38;;;;;;;;;;5110921;27;20209;-64
2022/09/25 11:06:51;;;;;;;3.92;3.13;;;;;;;;;;5102354;28;20255;-66
2022/09/25 11:09:20;;;;;;;4.75;3.00;;;;;;;;;;5115311;27;20684;-66
2022/09/25 11:11:49;;;;;;;6.38;3.10;;;;;;;;;;5131237;27;20194;-66
2022/09/25 11:14:36;;;;;;;4.32;3.35;;;;;;;;;;5130565;27;20660;-66
2022/09/25 11:17:04;;;;;;;4.13;3.60;;;;;;;;;;5149075;27;20187;-65
2022/09/25 11:19:32;;;;;;;4.15;3.75;;;;;;;;;;5130810;27;20669;-66
2022/09/25 11:22:06;;;;;;;4.80;3.50;;;;;;;;;;5130768;27;20306;-66
2022/09/25 11:24:39;;;;;;;4.03;3.50;;;;;;;;;;5096466;28;20350;-65
2022/09/25 11:27:13;;;;;;;3.35;3.00;;;;;;;;;;5090079;28;20259;-65
2022/09/25 11:29:54;;;;;;;4.75;3.42;;;;;;;;;;5118696;28;20641;-65
2022/09/25 11:32:26;;;;;;;4.45;4.00;;;;;;;;;;5110213;28;20225;-65
2022/09/25 11:34:53;;;;;;;5.78;4.43;;;;;;;;;;5109778;28;20223;-65
2022/09/25 11:37:26;;;;;;;27.70;22.70;;;;;;;;;;5109938;28;20203;-65
2022/09/25 11:43:04;;;;;;;8.77;5.47;;;;;;;;;;5133531;27;20245;-66
2022/09/25 11:45:35;;;;;;;5.50;4.90;;;;;;;;;;5130597;27;20306;-66
2022/09/25 11:48:06;;;;;;;5.43;4.82;;;;;;;;;;5134667;28;20220;-65
2022/09/25 11:50:52;;;;;;;4.97;4.20;;;;;;;;;;5117197;28;20250;-66
2022/09/25 11:53:31;;;;;;;4.65;3.92;;;;;;;;;;5109141;28;20282;-66
2022/09/25 11:56:05;;;;;;;4.53;4.03;;;;;;;;;;5109248;28;20215;-64
2022/09/25 11:58:52;;;;;;;3.83;3.53;;;;;;;;;;5103546;27;20611;-66
2022/09/25 12:01:24;;;;;;;8.30;4.20;;;;;;;;;;5097646;28;20260;-65
2022/09/25 12:04:03;;;;;;;6.18;4.72;;;;;;;;;;5095602;28;20184;-65
2022/09/25 12:06:37;;;;;;;4.75;3.92;;;;;;;;;;5095328;28;20250;-66
2022/09/25 12:09:10;;;;;;;4.32;3.88;;;;;;;;;;5094843;28;20197;-65
2022/09/25 12:11:44;;;;;;;8.50;7.70;;;;;;;;;;5095175;28;20288;-65
2022/09/25 12:14:18;;;;;;;6.60;6.00;;;;;;;;;;5094340;28;20204;-65
2022/09/25 12:16:48;;;;;;;5.47;4.95;;;;;;;;;;5113025;28;20211;-66
2022/09/25 12:19:25;;;;;;;6.47;5.88;;;;;;;;;;5094940;28;20200;-65
2022/09/25 12:22:07;;;;;;;6.78;6.28;;;;;;;;;;5095553;28;20622;-66
2022/09/25 12:25:04;;;;;;;6.82;4.63;;;;;;;;;;5094895;28;20701;-65
2022/09/25 12:27:50;;;;;;;6.25;4.93;;;;;;;;;;5088077;27;20220;-66
2022/09/25 12:30:41;;;;;;;5.60;5.10;;;;;;;;;;5096743;28;20703;-65
2022/09/25 12:33:18;;;;;;;6.93;5.10;;;;;;;;;;5062261;28;20205;-66
2022/09/25 12:35:49;;;;;;;5.72;4.47;;;;;;;;;;5074356;28;20805;-66
2022/09/25 12:38:22;;;;;;;6.78;4.57;;;;;;;;;;5074778;28;20204;-66
2022/09/25 12:40:49;;;;;;;5.45;4.95;;;;;;;;;;5074713;28;20288;-66
2022/09/25 12:43:23;;;;;;;6.25;4.85;;;;;;;;;;5076193;28;20201;-65
2022/09/25 12:46:11;;;;;;;6.45;4.72;;;;;;;;;;5094742;28;20589;-66
2022/09/25 12:48:54;;;;;;;5.30;4.80;;;;;;;;;;5090478;28;20196;-65
2022/09/25 12:51:28;;;;;;;5.70;5.28;;;;;;;;;;5094623;28;20247;-66
2022/09/25 12:53:58;;;;;;;6.07;5.47;;;;;;;;;;5093428;27;20270;-65
2022/09/25 12:56:31;;;;;;;6.68;5.97;;;;;;;;;;5106899;27;20654;-65
2022/09/25 12:59:02;;;;;;;6.43;5.43;;;;;;;;;;5105901;28;20207;-66
2022/09/25 13:01:51;;;;;;;7.93;5.85;;;;;;;;;;5093945;28;20196;-65
2022/09/25 13:04:37;;;;;;;5.95;5.35;;;;;;;;;;5068557;28;20612;-66
2022/09/25 13:07:17;;;;;;;5.70;5.20;;;;;;;;;;5073598;28;20720;-66
2022/09/25 13:09:45;;;;;;;6.63;5.43;;;;;;;;;;5091047;28;20514;-65
2022/09/25 13:12:16;;;;;;;7.30;5.78;;;;;;;;;;5074016;28;20204;-66
2022/09/25 13:14:59;;;;;;;6.93;6.22;;;;;;;;;;5073610;28;20312;-66
2022/09/25 13:17:26;;;;;;;7.70;5.32;;;;;;;;;;5117294;27;20211;-66
2022/09/25 13:19:54;;;;;;;7.45;6.70;;;;;;;;;;5099733;28;20298;-65
2022/09/25 13:22:25;;;;;;;6.20;5.60;;;;;;;;;;5093518;28;20299;-66
2022/09/25 13:24:55;;;;;;;6.15;5.55;;;;;;;;;;5094023;28;20671;-66
2022/09/25 13:27:24;;;;;;;7.13;5.85;;;;;;;;;;5094665;27;20213;-65
2022/09/25 13:29:54;;;;;;;6.43;5.82;;;;;;;;;;5099728;28;20231;-65
2022/09/25 13:32:22;;;;;;;6.03;5.43;;;;;;;;;;5094100;28;20489;-65
2022/09/25 13:35:01;;;;;;;6.20;5.60;;;;;;;;;;5094128;28;20624;-65
2022/09/25 13:37:33;;;;;;;6.43;5.80;;;;;;;;;;5093802;28;20242;-65
2022/09/25 13:43:21;;;;;;;8.85;6.35;;;;;;;;;;5105838;27;20693;-65
2022/09/25 13:45:49;;;;;;;6.55;5.43;;;;;;;;;;5099332;28;20335;-65
2022/09/25 13:48:31;;;;;;;6.15;5.40;;;;;;;;;;5125206;27;20227;-65
2022/09/25 13:51:17;;;;;;;6.78;6.00;;;;;;;;;;5113984;27;20290;-65
2022/09/25 13:53:50;;;;;;;6.38;5.72;;;;;;;;;;5113951;27;20200;-65
2022/09/25 13:56:22;;;;;;;16.33;13.48;;;;;;;;;;5122555;27;20232;-65
2022/09/25 13:59:12;;;;;;;7.38;6.05;;;;;;;;;;5122596;27;20203;-65
2022/09/25 14:01:41;;;;;;;6.32;5.65;;;;;;;;;;5078704;28;20215;-65
2022/09/25 14:04:09;;;;;;;6.35;5.75;;;;;;;;;;5122993;27;20217;-66
2022/09/25 14:06:38;;;;;;;6.78;6.18;;;;;;;;;;5112731;27;20203;-66
2022/09/25 14:09:07;;;;;;;9.05;8.15;;;;;;;;;;5113850;27;20195;-66
2022/09/25 14:11:36;;;;;;;6.05;5.43;;;;;;;;;;5131611;27;20572;-65
2022/09/25 14:14:25;;;;;;;7.68;6.30;;;;;;;;;;5090318;28;20205;-66
2022/09/25 14:16:53;;;;;;;6.43;5.70;;;;;;;;;;5075070;28;20603;-65
2022/09/25 14:19:25;;;;;;;7.60;6.63;;;;;;;;;;5093044;28;20204;-65
2022/09/25 14:21:53;;;;;;;7.63;6.85;;;;;;;;;;5093002;28;20200;-65
2022/09/25 14:24:23;;;;;;;7.88;6.53;;;;;;;;;;5092893;28;20567;-66
2022/09/25 14:26:51;;;;;;;6.30;5.72;;;;;;;;;;5092862;28;20282;-65
2022/09/25 14:29:21;;;;;;;7.43;6.68;;;;;;;;;;5099983;28;20287;-65
2022/09/25 14:32:02;;;;;;;6.70;6.07;;;;;;;;;;5092035;28;20291;-65
2022/09/25 14:34:39;;;;;;;8.32;6.90;;;;;;;;;;5092890;28;20622;-66
2022/09/25 14:37:10;;;;;;;7.53;6.13;;;;;;;;;;5092425;28;20200;-66
2022/09/25 14:39:44;;;;;;;7.32;5.90;;;;;;;;;;5110591;28;20764;-66
2022/09/25 14:42:25;;;;;;;7.57;5.75;;;;;;;;;;5094185;28;20266;-64
2022/09/25 14:45:07;;;;;;;7.70;6.40;;;;;;;;;;5132452;28;20617;-65
2022/09/25 14:47:37;;;;;;;6.47;5.88;;;;;;;;;;5104679;28;20688;-65
2022/09/25 14:50:05;;;;;;;6.72;6.10;;;;;;;;;;5093005;28;20200;-65
2022/09/25 14:52:34;;;;;;;7.43;5.90;;;;;;;;;;5092933;28;20647;-65
2022/09/25 14:55:02;;;;;;;9.40;6.10;;;;;;;;;;5092812;28;20593;-66
2022/09/25 14:57:32;;;;;;;6.32;5.72;;;;;;;;;;5093993;28;20211;-65
2022/09/25 15:00:01;;;;;;;8.00;7.20;;;;;;;;;;5096867;28;20291;-65
2022/09/25 15:02:33;;;;;;;9.52;8.50;;;;;;;;;;5092490;28;20669;-65
2022/09/25 15:05:20;;;;;;;7.25;6.55;;;;;;;;;;5091954;28;20709;-65
2022/09/25 15:07:47;;;;;;;7.78;6.68;;;;;;;;;;5092010;28;20248;-65
2022/09/25 15:10:38;;;;;;;7.28;6.65;;;;;;;;;;5092315;28;20287;-66
2022/09/25 15:13:15;;;;;;;8.77;7.65;;;;;;;;;;5084589;28;20211;-65
2022/09/25 15:17:20;;;;;;;7.68;6.97;;;;;;;;;;5091969;28;20256;-66
2022/09/25 15:18:31;;;;;;;7.68;6.88;;;;;;;;;;5110932;28;20204;-64
2022/09/25 15:21:00;;;;;;;7.13;6.40;;;;;;;;;;5091968;28;20295;-66
2022/09/25 15:23:27;;;;;;;14.05;9.60;;;;;;;;;;5099092;28;20243;-66
2022/09/25 15:26:01;;;;;;;13.30;11.90;;;;;;;;;;5108824;28;20533;-66
2022/09/25 15:28:28;;;;;;;10.20;9.20;;;;;;;;;;5109264;28;20231;-66